Jamestown Regional Airport
KJMS : now visible

Airfield :











YOU CAN JOIN US ON...

 
LOGIN :

Register | Disclaimer

   EN    FR    IT 

 









Legend :    VFR   Marginal VFR   IFR   Intensive IFR   Very Intensive IFR
Visi :
Ceiling :
>= 8 km
>= 3000ft
5 to 8 km
1000 to 3000 ft
1500m to 5 km
500 to 1000 ft
800 to 1500m
200 to 500 ft
< 800m
< 200 ft
Symbols :   Thunderstorms  Fog  Heavy snow  Heavy precipitations  Wind > 20 kt






- Airport Elevation : 1500 ft
- IATA code : JMS


KJMS - Jamestown Regional

CURRENT METAR :
  • 291256Z AUTO 06010G17KT 10SM VCTS -RA FEW050 FEW080 FEW110 16/10 A2998 RMK AO2 LTG DSNT N AND NW RAB51 SLP151 P0000 T01560100

EXPIRED METARs :
  • 291156Z AUTO 13011KT 10SM FEW120 15/10 A2997 RMK AO2 LTG DSNT N RAE07 SLP147 P0000 60000 T01500100 10150 20139 58020
  • 291056Z AUTO 12011KT 10SM -RA SCT110 14/09 A3001 RMK AO2 RAB54 SLP158 P0000 T01440094

TAF KJMS
Valid from the 29 at 13:00 until the 30 at 12:00 UTC


291244Z 2913/3012 12011KT P6SM VCTS BKN100CB
TEMPO 2913/2915 6SM -TSRA BR
FM291500 14015G23KT P6SM VCSH BKN090
FM291800 15014G23KT P6SM FEW200
FM300000 27009KT P6SM VCTS BKN100CB
KZMP FIR / North America



MET'MAP, your aeronautical weather chart ! - Copyright ORBIFLY December 2007 - Disclaimer

ORBIFLY MET'MAP TEAM :

Programming & Development : Alexandra Zaïnal
Original concept : Baudouin d'Aumeries
Technical & hardware support : Manuel Goepfert
Assistance : Marc-Olivier Méhu




SOURCES & CREDITS :

   NOAA       Earth
Advisory